createdAt,value
2019-03-30T00:00:13.773Z,7.00
2019-03-30T00:15:41.817Z,7.60
2019-03-30T00:30:10.974Z,6.93
2019-03-30T00:33:26.011Z,8.60
2019-03-30T01:02:09.121Z,8.75
2019-03-30T01:04:58.472Z,10.07
2019-03-30T01:08:19.128Z,8.50
2019-03-30T01:12:00.000Z,11.53
2019-03-30T01:15:36.460Z,9.53
2019-03-30T01:18:49.284Z,9.47
2019-03-30T01:25:19.280Z,11.00
2019-03-30T01:31:36.194Z,9.53
2019-03-30T01:34:36.719Z,9.80
2019-03-30T01:38:16.480Z,10.57
2019-03-30T01:44:40.613Z,12.40
2019-03-30T01:47:39.273Z,11.20
2019-03-30T01:51:00.497Z,8.77
2019-03-30T01:54:30.812Z,11.20
2019-03-30T01:57:43.255Z,12.40
2019-03-30T02:01:32.502Z,24.57
2019-03-30T02:04:25.516Z,9.60
2019-03-30T02:07:31.390Z,13.70
2019-03-30T02:10:32.082Z,10.70
2019-03-30T02:13:27.895Z,15.40
2019-03-30T02:16:05.381Z,12.57
2019-03-30T02:19:04.345Z,11.03
2019-03-30T02:22:07.540Z,14.23
2019-03-30T02:24:47.191Z,13.70
2019-03-30T02:27:53.835Z,13.13
2019-03-30T02:30:39.655Z,13.20
2019-03-30T02:34:06.370Z,13.33
2019-03-30T02:40:36.460Z,13.03
2019-03-30T02:43:21.260Z,11.87
2019-03-30T02:45:56.065Z,13.43
2019-03-30T02:48:34.778Z,12.23
2019-03-30T02:51:21.308Z,14.40
2019-03-30T02:54:29.044Z,14.37
2019-03-30T02:57:14.949Z,11.73
2019-03-30T02:59:54.614Z,10.10
2019-03-30T03:02:28.349Z,10.60
2019-03-30T03:11:45.683Z,9.30
2019-03-30T03:14:31.161Z,11.53
2019-03-30T03:17:09.757Z,8.23
2019-03-30T03:20:06.060Z,11.20
2019-03-30T03:23:25.830Z,9.47
2019-03-30T03:26:18.551Z,8.90
2019-03-30T03:29:08.168Z,14.43
2019-03-30T03:31:57.030Z,8.40
2019-03-30T03:34:32.177Z,19.07
2019-03-30T03:37:48.124Z,10.17
2019-03-30T03:41:05.923Z,8.33
2019-03-30T03:43:51.731Z,7.80
2019-03-30T03:46:45.680Z,9.77
2019-03-30T03:49:26.008Z,10.27
2019-03-30T03:52:10.392Z,10.20
2019-03-30T03:54:58.912Z,17.03
2019-03-30T03:57:44.239Z,9.03
2019-03-30T04:00:25.897Z,12.23
2019-03-30T04:03:09.737Z,10.60
2019-03-30T04:06:17.991Z,12.40
2019-03-30T04:09:13.283Z,11.07
2019-03-30T04:12:26.893Z,11.30
2019-03-30T04:15:12.778Z,11.33
2019-03-30T04:18:24.290Z,9.50
2019-03-30T04:21:02.408Z,9.57
2019-03-30T04:23:41.948Z,14.80
2019-03-30T04:26:35.287Z,14.17
2019-03-30T04:29:17.053Z,11.70
2019-03-30T04:32:11.349Z,8.17
2019-03-30T04:34:46.418Z,9.90
2019-03-30T04:37:36.982Z,10.00
2019-03-30T04:40:23.345Z,9.90
2019-03-30T04:43:08.965Z,12.23
2019-03-30T04:45:53.884Z,8.30
2019-03-30T04:48:36.064Z,12.20
2019-03-30T04:51:34.890Z,8.47
2019-03-30T04:54:10.390Z,11.10
2019-03-30T04:56:55.328Z,10.33
2019-03-30T04:59:35.755Z,14.00
2019-03-30T05:02:26.240Z,12.73
2019-03-30T05:05:06.463Z,8.07
2019-03-30T05:07:55.297Z,8.57
2019-03-30T05:10:30.609Z,8.23
2019-03-30T05:13:06.540Z,10.33
2019-03-30T05:16:09.213Z,10.88
2019-03-30T05:18:59.475Z,10.80
2019-03-30T05:21:50.527Z,12.67
2019-03-30T05:24:39.650Z,12.17
2019-03-30T05:27:24.439Z,10.87
2019-03-30T05:30:13.666Z,10.00
2019-03-30T05:33:07.581Z,11.27
2019-03-30T05:36:01.632Z,11.23
2019-03-30T05:39:09.731Z,12.57
2019-03-30T05:42:04.515Z,11.50
2019-03-30T05:44:47.173Z,10.30
2019-03-30T05:47:56.819Z,12.13
2019-03-30T05:50:59.761Z,11.67
2019-03-30T05:53:46.591Z,13.10
2019-03-30T05:56:44.680Z,11.27
2019-03-30T05:59:42.842Z,11.50
2019-03-30T06:02:22.700Z,9.88
2019-03-30T06:05:32.361Z,11.90
2019-03-30T06:08:28.753Z,10.27
2019-03-30T06:11:32.586Z,12.97
2019-03-30T06:14:51.580Z,14.47
2019-03-30T06:20:54.971Z,13.00
2019-03-30T06:23:55.157Z,12.63
2019-03-30T06:26:33.406Z,13.93
2019-03-30T06:30:10.496Z,14.63
2019-03-30T06:32:49.980Z,14.33
2019-03-30T06:35:31.437Z,12.90
2019-03-30T06:38:24.098Z,11.67
2019-03-30T06:45:42.529Z,14.00
2019-03-30T06:48:55.458Z,14.00
2019-03-30T06:52:15.102Z,10.80
2019-03-30T06:58:42.958Z,20.40
2019-03-30T07:01:42.689Z,12.80
2019-03-30T07:08:23.285Z,11.63
2019-03-30T07:11:21.656Z,10.80
2019-03-30T07:14:29.743Z,13.80
2019-03-30T07:17:14.870Z,9.37
2019-03-30T07:20:07.090Z,12.00
2019-03-30T07:22:54.498Z,12.40
2019-03-30T07:25:32.264Z,11.03
2019-03-30T07:28:19.149Z,11.67
2019-03-30T07:31:09.338Z,11.33
2019-03-30T07:34:00.703Z,10.70
2019-03-30T07:37:41.056Z,14.60
2019-03-30T07:40:33.909Z,17.17
2019-03-30T07:46:10.300Z,14.23
2019-03-30T07:49:10.044Z,17.90
2019-03-30T07:55:48.425Z,12.30
2019-03-30T08:02:53.019Z,11.13
2019-03-30T08:05:54.267Z,13.80
2019-03-30T08:09:15.539Z,14.10
2019-03-30T08:12:04.199Z,12.40
2019-03-30T08:14:52.964Z,10.07
2019-03-30T08:25:05.407Z,11.07
2019-03-30T08:28:04.294Z,11.73
2019-03-30T08:31:20.647Z,12.20
2019-03-30T08:34:36.224Z,12.20
2019-03-30T08:42:03.853Z,13.90
2019-03-30T08:45:52.653Z,12.03
2019-03-30T08:49:12.689Z,16.20
2019-03-30T08:52:15.394Z,14.13
2019-03-30T08:55:50.601Z,17.70
2019-03-30T08:59:15.305Z,18.50
2019-03-30T09:02:47.375Z,15.00
2019-03-30T09:06:17.653Z,14.43
2019-03-30T09:09:37.084Z,14.23
2019-03-30T09:13:02.648Z,17.80
2019-03-30T09:16:12.642Z,20.27
2019-03-30T09:23:43.112Z,14.07
2019-03-30T09:30:02.711Z,23.67
2019-03-30T09:33:20.543Z,16.83
2019-03-30T09:42:53.046Z,15.27
2019-03-30T09:45:58.286Z,18.00
2019-03-30T09:49:14.382Z,16.20
2019-03-30T09:56:23.832Z,15.83
2019-03-30T09:59:10.338Z,15.90
2019-03-30T10:17:59.269Z,17.10
2019-03-30T10:21:15.832Z,36.13
2019-03-30T10:24:58.242Z,16.37
2019-03-30T10:47:59.427Z,12.60
2019-03-30T11:03:19.592Z,15.67
2019-03-30T11:10:47.538Z,11.37
2019-03-30T11:14:30.379Z,18.23
2019-03-30T12:11:49.106Z,11.20
2019-03-30T13:16:18.975Z,12.87
2019-03-30T13:18:12.741Z,10.53
2019-03-30T15:04:22.540Z,10.83
2019-03-30T15:05:40.379Z,6.40
2019-03-30T15:13:06.377Z,10.53
2019-03-30T15:16:05.907Z,8.43
2019-03-30T15:19:44.653Z,8.27
2019-03-30T15:23:20.576Z,8.87
2019-03-30T15:27:00.174Z,8.33
2019-03-30T15:31:09.511Z,10.90
2019-03-30T15:33:55.470Z,8.75
2019-03-30T15:47:43.846Z,16.50
2019-03-30T15:52:14.223Z,14.63
2019-03-30T15:54:37.272Z,13.03
2019-03-30T15:58:49.195Z,9.87
2019-03-30T16:06:12.158Z,9.10
2019-03-30T16:21:35.733Z,11.10
2019-03-30T16:43:49.242Z,7.63
2019-03-30T16:50:45.806Z,19.87
2019-03-30T16:54:06.561Z,21.70
2019-03-30T17:01:27.344Z,17.37
2019-03-30T17:04:32.280Z,20.50
2019-03-30T17:07:32.593Z,15.50
2019-03-30T17:10:54.462Z,13.27
2019-03-30T17:14:23.130Z,19.03
2019-03-30T17:25:42.972Z,14.03
2019-03-30T17:49:04.268Z,19.27
2019-03-30T17:56:46.216Z,20.50
2019-03-30T18:49:24.246Z,20.57
2019-03-30T19:39:57.281Z,30.60
2019-03-30T20:16:09.890Z,38.67
2019-03-30T21:15:13.272Z,35.90
2019-03-30T21:24:02.390Z,41.83
2019-03-30T21:28:55.415Z,41.67
2019-03-30T22:07:25.342Z,40.23
2019-03-30T22:11:21.440Z,44.95
2019-03-30T22:14:55.508Z,45.37
2019-03-30T22:19:01.130Z,43.73
2019-03-30T22:22:52.301Z,42.60
2019-03-30T22:30:43.430Z,45.10
2019-03-30T22:34:02.116Z,43.98
2019-03-30T22:41:34.203Z,68.90
2019-03-30T22:45:11.192Z,52.37
2019-03-30T22:56:20.997Z,47.70
2019-03-30T22:59:49.247Z,52.47
2019-03-30T23:18:06.245Z,55.93
2019-03-30T23:25:21.060Z,56.33
2019-03-30T23:28:46.675Z,53.98
2019-03-30T23:32:16.203Z,51.63
2019-03-30T23:39:37.882Z,57.33
2019-03-30T23:42:51.964Z,62.93
